Time;durP1;ratioP1;P1;durP2;ratioP2;P2;SDS_P1;SDS_P2;PMS_P1;PMS_P2;Temp;Humidity;BMP_temperature;BMP_pressure;BME280_temperature;BME280_humidity;BME280_pressure;Samples;Min_cycle;Max_cycle;Signal;HPM_P1;HPM_P2
2021/12/25 00:01:16;;;;;;;42.78;23.02;;;;;;;;;;5060218;28;20033;-74
2021/12/25 00:03:42;;;;;;;39.95;22.63;;;;;;;;;;5078094;28;20103;-75
2021/12/25 00:06:08;;;;;;;39.55;22.88;;;;;;;;;;5078065;28;20059;-73
2021/12/25 00:08:34;;;;;;;43.20;23.98;;;;;;;;;;5060020;28;20418;-73
2021/12/25 00:11:01;;;;;;;45.53;24.83;;;;;;;;;;5077859;28;20020;-74
2021/12/25 00:13:27;;;;;;;42.95;25.40;;;;;;;;;;5077952;28;20023;-73
2021/12/25 00:15:54;;;;;;;52.25;27.30;;;;;;;;;;5060104;28;20040;-74
2021/12/25 00:18:20;;;;;;;42.10;24.10;;;;;;;;;;5059958;28;20111;-74
2021/12/25 00:20:46;;;;;;;39.88;21.60;;;;;;;;;;5077774;28;20500;-74
2021/12/25 00:23:12;;;;;;;40.28;22.38;;;;;;;;;;5059900;28;20030;-74
2021/12/25 00:25:43;;;;;;;39.67;21.75;;;;;;;;;;5059583;28;20123;-74
2021/12/25 00:36:17;;;;;;;36.22;18.70;;;;;;;;;;5036680;28;20033;-74
2021/12/25 00:38:43;;;;;;;36.63;18.88;;;;;;;;;;5077550;28;20074;-75
2021/12/25 00:41:10;;;;;;;36.55;19.10;;;;;;;;;;5059683;28;20033;-73
2021/12/25 00:43:36;;;;;;;39.85;19.60;;;;;;;;;;5042936;28;20075;-73
2021/12/25 00:46:02;;;;;;;41.00;20.17;;;;;;;;;;5059096;28;20016;-75
2021/12/25 00:48:28;;;;;;;30.63;17.67;;;;;;;;;;5076844;28;20012;-73
2021/12/25 00:50:54;;;;;;;35.97;16.75;;;;;;;;;;5076739;28;20020;-74
2021/12/25 00:53:20;;;;;;;35.80;20.48;;;;;;;;;;5060082;28;20024;-73
2021/12/25 00:55:46;;;;;;;33.50;17.92;;;;;;;;;;5059372;28;20016;-73
2021/12/25 00:58:12;;;;;;;30.35;18.77;;;;;;;;;;5059267;28;20044;-74
2021/12/25 01:00:38;;;;;;;29.13;18.00;;;;;;;;;;5077165;28;20430;-73
2021/12/25 01:03:05;;;;;;;31.33;16.60;;;;;;;;;;5059539;28;20166;-72
2021/12/25 01:05:31;;;;;;;36.60;18.92;;;;;;;;;;5059194;28;20389;-75
2021/12/25 01:07:57;;;;;;;35.47;20.92;;;;;;;;;;5059800;28;20074;-73
2021/12/25 01:10:23;;;;;;;34.63;16.58;;;;;;;;;;5059463;28;20020;-73
2021/12/25 01:13:11;;;;;;;29.58;17.58;;;;;;;;;;5059126;28;20107;-74
2021/12/25 01:15:53;;;;;;;38.95;19.05;;;;;;;;;;5042521;28;20410;-75
2021/12/25 01:31:55;;;;;;;;;;;;;;;;;;5080636;28;20330;-72
2021/12/25 01:37:07;;;;;;;39.47;22.40;;;;;;;;;;5062847;28;20437;-75
2021/12/25 01:47:48;;;;;;;44.35;22.45;;;;;;;;;;5062226;28;20021;-74
2021/12/25 01:50:25;;;;;;;44.80;23.15;;;;;;;;;;5079987;28;20096;-75
2021/12/25 01:52:52;;;;;;;51.25;26.90;;;;;;;;;;5061709;28;20099;-72
2021/12/25 01:55:22;;;;;;;45.53;24.55;;;;;;;;;;5061206;28;20094;-73
2021/12/25 01:57:50;;;;;;;47.97;26.92;;;;;;;;;;5044401;28;20053;-74
2021/12/25 02:00:27;;;;;;;52.33;25.25;;;;;;;;;;5062093;28;20084;-74
2021/12/25 02:02:57;;;;;;;46.15;24.08;;;;;;;;;;5044173;28;20115;-73
2021/12/25 02:05:27;;;;;;;48.75;25.92;;;;;;;;;;5061745;28;20021;-74
2021/12/25 02:07:59;;;;;;;47.03;24.92;;;;;;;;;;5044778;28;20048;-75
2021/12/25 02:10:25;;;;;;;44.70;25.02;;;;;;;;;;5061740;28;20017;-73
2021/12/25 02:12:58;;;;;;;41.58;22.85;;;;;;;;;;5079390;28;20017;-74
2021/12/25 02:15:34;;;;;;;47.33;25.05;;;;;;;;;;5045272;28;20021;-74
2021/12/25 02:20:49;;;;;;;44.03;23.88;;;;;;;;;;5061091;28;20342;-73
2021/12/25 02:23:23;;;;;;;37.07;20.80;;;;;;;;;;5044817;28;20507;-73
2021/12/25 02:26:03;;;;;;;35.50;18.77;;;;;;;;;;5062336;28;20346;-73
2021/12/25 02:28:36;;;;;;;43.72;25.10;;;;;;;;;;5044917;28;20021;-74
2021/12/25 02:31:09;;;;;;;43.65;22.67;;;;;;;;;;5044894;28;20032;-75
2021/12/25 02:33:38;;;;;;;43.40;18.90;;;;;;;;;;5042743;28;20021;-73
2021/12/25 02:36:06;;;;;;;35.90;19.15;;;;;;;;;;5043337;28;20025;-74
2021/12/25 02:38:38;;;;;;;42.30;23.10;;;;;;;;;;5060024;28;20017;-75
2021/12/25 02:41:15;;;;;;;35.28;19.48;;;;;;;;;;5044794;28;20143;-73
2021/12/25 02:43:52;;;;;;;32.13;19.85;;;;;;;;;;5045505;28;20346;-74
2021/12/25 02:46:20;;;;;;;37.33;20.40;;;;;;;;;;5060253;28;20058;-73
2021/12/25 02:48:46;;;;;;;40.97;21.65;;;;;;;;;;5043660;28;20113;-74
2021/12/25 02:51:16;;;;;;;32.78;18.50;;;;;;;;;;5076804;28;20013;-74
2021/12/25 02:53:43;;;;;;;41.53;23.10;;;;;;;;;;5061678;28;20024;-73
2021/12/25 02:56:23;;;;;;;51.85;25.98;;;;;;;;;;5043206;28;20020;-75
2021/12/25 02:58:57;;;;;;;48.00;23.07;;;;;;;;;;5043387;28;20028;-76
2021/12/25 03:01:24;;;;;;;47.47;22.95;;;;;;;;;;5042759;28;20040;-73
2021/12/25 03:03:50;;;;;;;41.28;25.10;;;;;;;;;;5060436;28;20352;-75
2021/12/25 03:06:17;;;;;;;39.20;21.13;;;;;;;;;;5059506;28;20020;-74
2021/12/25 03:08:44;;;;;;;48.67;23.80;;;;;;;;;;5042229;28;20008;-75
2021/12/25 03:11:15;;;;;;;47.42;25.40;;;;;;;;;;5041997;28;20020;-72
2021/12/25 03:13:56;;;;;;;51.33;24.33;;;;;;;;;;5044136;28;20020;-73
2021/12/25 03:16:23;;;;;;;49.55;27.67;;;;;;;;;;5061276;28;20036;-72
2021/12/25 03:18:52;;;;;;;47.22;24.17;;;;;;;;;;5042203;28;20021;-73
2021/12/25 03:21:20;;;;;;;44.35;24.20;;;;;;;;;;5077893;28;20039;-74
2021/12/25 03:23:48;;;;;;;39.83;20.52;;;;;;;;;;5049660;23;20046;-72
2021/12/25 03:26:14;;;;;;;44.03;24.50;;;;;;;;;;5075781;28;20016;-73
2021/12/25 03:28:43;;;;;;;47.78;26.48;;;;;;;;;;5055175;28;20025;-73
2021/12/25 03:31:19;;;;;;;40.75;24.13;;;;;;;;;;5055966;28;20021;-73
2021/12/25 03:33:50;;;;;;;37.15;20.55;;;;;;;;;;5058221;28;20394;-75
2021/12/25 03:36:21;;;;;;;37.47;19.65;;;;;;;;;;5058479;28;20024;-74
2021/12/25 03:38:48;;;;;;;32.25;17.27;;;;;;;;;;5040662;28;20426;-74
2021/12/25 03:41:15;;;;;;;34.45;18.52;;;;;;;;;;5059059;28;20071;-75
2021/12/25 03:43:43;;;;;;;28.35;15.25;;;;;;;;;;5042565;28;20088;-74
2021/12/25 03:46:13;;;;;;;29.27;15.70;;;;;;;;;;5041904;28;20335;-76
2021/12/25 03:59:17;;;;;;;27.23;15.13;;;;;;;;;;5058137;28;20115;-76
2021/12/25 04:01:49;;;;;;;28.85;16.13;;;;;;;;;;5058800;28;20036;-74
2021/12/25 04:04:21;;;;;;;31.88;15.52;;;;;;;;;;5042308;28;20411;-75
2021/12/25 04:06:54;;;;;;;23.25;11.98;;;;;;;;;;5058656;28;20025;-74
2021/12/25 04:09:26;;;;;;;16.50;9.02;;;;;;;;;;5076380;28;20389;-74
2021/12/25 04:11:59;;;;;;;18.25;9.85;;;;;;;;;;5057816;28;20031;-76
2021/12/25 04:14:25;;;;;;;13.73;8.63;;;;;;;;;;5057806;28;20042;-74
2021/12/25 04:16:52;;;;;;;22.38;9.02;;;;;;;;;;5039550;28;20027;-73
2021/12/25 04:19:19;;;;;;;20.30;10.38;;;;;;;;;;5055891;28;20020;-75
2021/12/25 04:21:53;;;;;;;19.05;10.80;;;;;;;;;;5056428;28;20020;-73
2021/12/25 04:24:20;;;;;;;16.10;9.57;;;;;;;;;;5056334;28;20185;-74
2021/12/25 04:26:49;;;;;;;19.40;10.13;;;;;;;;;;5040134;28;20124;-73
2021/12/25 05:02:04;;;;;;;21.23;8.65;;;;;;;;;;5074736;28;20036;-73
2021/12/25 05:04:36;;;;;;;21.10;8.60;;;;;;;;;;5039734;28;20196;-74
2021/12/25 05:07:04;;;;;;;18.27;9.60;;;;;;;;;;5039191;28;20434;-74
2021/12/25 05:09:30;;;;;;;26.23;10.05;;;;;;;;;;5056535;28;20430;-74
2021/12/25 05:11:57;;;;;;;16.35;8.77;;;;;;;;;;5075282;28;20024;-74
2021/12/25 05:14:23;;;;;;;20.73;9.50;;;;;;;;;;5040462;28;20047;-74
2021/12/25 05:16:50;;;;;;;20.00;9.40;;;;;;;;;;5056715;28;20441;-75
2021/12/25 05:19:16;;;;;;;19.55;10.85;;;;;;;;;;5056279;28;20067;-75
2021/12/25 05:21:42;;;;;;;22.17;10.98;;;;;;;;;;5074547;28;20031;-74
2021/12/25 05:24:08;;;;;;;22.65;8.95;;;;;;;;;;5039360;28;20016;-74
2021/12/25 05:26:34;;;;;;;22.05;9.32;;;;;;;;;;5056967;28;20227;-73
2021/12/25 05:29:01;;;;;;;29.30;9.98;;;;;;;;;;5055883;28;20089;-74
2021/12/25 05:31:29;;;;;;;12.85;6.82;;;;;;;;;;5056331;28;20323;-74
2021/12/25 05:33:55;;;;;;;14.93;6.43;;;;;;;;;;5056940;28;20021;-73
2021/12/25 05:36:24;;;;;;;17.73;6.97;;;;;;;;;;5056418;28;20025;-73
2021/12/25 05:38:50;;;;;;;13.95;7.28;;;;;;;;;;5074500;28;20020;-75
2021/12/25 05:41:17;;;;;;;12.23;6.35;;;;;;;;;;5056510;28;20349;-75
2021/12/25 05:43:43;;;;;;;18.42;7.25;;;;;;;;;;5040238;28;20026;-74
2021/12/25 05:46:11;;;;;;;10.23;5.65;;;;;;;;;;5073995;28;20133;-76
2021/12/25 05:48:37;;;;;;;11.40;7.10;;;;;;;;;;5073884;28;20107;-74
2021/12/25 05:51:04;;;;;;;19.60;7.47;;;;;;;;;;5056207;28;20393;-75
2021/12/25 05:53:31;;;;;;;16.05;7.10;;;;;;;;;;5056333;28;20419;-74
2021/12/25 05:55:58;;;;;;;13.57;7.05;;;;;;;;;;5072611;28;20422;-73
2021/12/25 05:58:24;;;;;;;17.90;7.95;;;;;;;;;;5056266;28;20035;-74
2021/12/25 06:00:53;;;;;;;21.42;9.07;;;;;;;;;;5056354;28;20032;-74
2021/12/25 06:03:20;;;;;;;33.13;8.13;;;;;;;;;;5075126;28;20013;-73
2021/12/25 06:05:47;;;;;;;16.95;6.90;;;;;;;;;;5057224;28;20063;-73
2021/12/25 06:08:15;;;;;;;25.20;8.60;;;;;;;;;;5058124;28;20025;-74
2021/12/25 06:10:47;;;;;;;41.90;11.43;;;;;;;;;;5060884;28;20433;-73
2021/12/25 06:13:18;;;;;;;45.03;13.35;;;;;;;;;;5044537;28;20028;-74
2021/12/25 06:15:46;;;;;;;37.33;15.55;;;;;;;;;;5062652;28;20073;-74
2021/12/25 06:18:13;;;;;;;40.22;16.45;;;;;;;;;;5061677;28;20315;-74
2021/12/25 06:20:40;;;;;;;40.60;13.13;;;;;;;;;;5042842;28;20036;-74
2021/12/25 06:23:07;;;;;;;29.52;11.57;;;;;;;;;;5058886;28;20036;-74
2021/12/25 06:25:36;;;;;;;41.50;15.55;;;;;;;;;;5060834;28;20318;-75
2021/12/25 06:28:03;;;;;;;41.10;13.25;;;;;;;;;;5045379;28;20412;-73
2021/12/25 06:30:31;;;;;;;45.67;15.63;;;;;;;;;;5043111;28;20112;-75
2021/12/25 06:32:59;;;;;;;32.50;13.30;;;;;;;;;;5044930;28;20088;-74
2021/12/25 06:35:28;;;;;;;38.92;15.35;;;;;;;;;;5044129;28;20369;-75
2021/12/25 06:37:56;;;;;;;39.20;14.33;;;;;;;;;;5045919;28;20066;-74
2021/12/25 06:40:22;;;;;;;38.85;15.20;;;;;;;;;;5077376;28;20127;-74
2021/12/25 06:42:50;;;;;;;44.83;16.48;;;;;;;;;;5059975;28;20039;-74
2021/12/25 06:45:16;;;;;;;37.63;13.88;;;;;;;;;;5043260;28;20119;-74
2021/12/25 06:47:42;;;;;;;36.78;16.77;;;;;;;;;;5076821;28;20312;-74
2021/12/25 06:50:10;;;;;;;30.67;14.23;;;;;;;;;;5077038;28;20395;-74
2021/12/25 06:52:37;;;;;;;42.63;16.65;;;;;;;;;;5043816;28;20116;-74
2021/12/25 06:55:06;;;;;;;45.17;15.00;;;;;;;;;;5045122;28;20021;-74
2021/12/25 06:57:43;;;;;;;38.22;16.35;;;;;;;;;;5061003;28;20017;-75
2021/12/25 07:00:10;;;;;;;43.03;15.73;;;;;;;;;;5043203;28;20028;-75
2021/12/25 07:02:38;;;;;;;55.78;18.55;;;;;;;;;;5078366;28;20415;-74
2021/12/25 07:05:05;;;;;;;55.80;19.15;;;;;;;;;;5060147;28;20414;-74
2021/12/25 07:07:32;;;;;;;37.45;15.88;;;;;;;;;;5059269;28;20360;-73
2021/12/25 07:09:58;;;;;;;53.88;17.80;;;;;;;;;;5060310;28;20123;-73
2021/12/25 07:12:25;;;;;;;45.00;20.23;;;;;;;;;;5059594;28;20046;-74
2021/12/25 07:14:51;;;;;;;39.58;19.05;;;;;;;;;;5043175;28;20343;-74
2021/12/25 07:17:17;;;;;;;47.97;17.98;;;;;;;;;;5060114;28;20051;-74
2021/12/25 07:19:44;;;;;;;47.00;19.10;;;;;;;;;;5059259;28;20061;-74
2021/12/25 07:22:09;;;;;;;54.30;23.15;;;;;;;;;;5060485;28;20434;-74
2021/12/25 07:24:35;;;;;;;46.03;21.20;;;;;;;;;;5043072;28;20017;-74
2021/12/25 07:27:05;;;;;;;58.28;21.33;;;;;;;;;;5044303;28;20017;-74
2021/12/25 07:29:32;;;;;;;44.25;20.52;;;;;;;;;;5041702;28;20016;-74
2021/12/25 07:31:59;;;;;;;45.67;18.92;;;;;;;;;;5058839;28;20119;-74
2021/12/25 07:34:26;;;;;;;36.47;17.23;;;;;;;;;;5077265;28;20021;-74
2021/12/25 07:36:52;;;;;;;43.65;17.08;;;;;;;;;;5043125;28;20021;-74
2021/12/25 07:39:19;;;;;;;46.45;18.55;;;;;;;;;;5059363;28;20032;-74
2021/12/25 07:41:45;;;;;;;58.30;18.75;;;;;;;;;;5060005;28;20350;-74
2021/12/25 07:44:11;;;;;;;43.42;17.08;;;;;;;;;;5076983;28;20036;-74
2021/12/25 07:46:37;;;;;;;40.58;17.05;;;;;;;;;;5043313;28;20098;-74
2021/12/25 07:49:04;;;;;;;31.73;15.50;;;;;;;;;;5073728;28;20415;-74
2021/12/25 07:51:30;;;;;;;35.90;15.50;;;;;;;;;;5060157;28;20390;-74
2021/12/25 07:53:56;;;;;;;39.05;15.60;;;;;;;;;;5059862;28;20021;-74
2021/12/25 07:56:26;;;;;;;51.35;20.23;;;;;;;;;;5078330;28;20074;-74
2021/12/25 07:58:52;;;;;;;57.90;23.23;;;;;;;;;;5043293;28;20058;-73
2021/12/25 08:01:19;;;;;;;48.85;20.33;;;;;;;;;;5060069;28;20029;-74
2021/12/25 08:03:45;;;;;;;58.65;29.70;;;;;;;;;;5077670;28;20039;-74
2021/12/25 08:06:11;;;;;;;75.85;34.65;;;;;;;;;;5059565;28;20028;-73
2021/12/25 08:08:37;;;;;;;54.08;27.60;;;;;;;;;;5042689;28;20342;-73
2021/12/25 08:11:03;;;;;;;77.75;33.47;;;;;;;;;;5059678;28;20036;-75
2021/12/25 08:13:29;;;;;;;99.55;41.08;;;;;;;;;;5059125;28;20031;-75
2021/12/25 08:15:55;;;;;;;122.70;59.90;;;;;;;;;;5059205;28;20028;-74
2021/12/25 08:18:25;;;;;;;151.05;71.38;;;;;;;;;;5043356;28;20020;-74
2021/12/25 08:20:54;;;;;;;137.73;72.25;;;;;;;;;;5042566;28;20033;-73
2021/12/25 08:23:20;;;;;;;131.23;68.45;;;;;;;;;;5043237;28;20027;-75
2021/12/25 08:25:46;;;;;;;131.98;64.13;;;;;;;;;;5059262;28;20077;-73
2021/12/25 08:28:12;;;;;;;120.15;57.88;;;;;;;;;;5042216;28;20040;-73
2021/12/25 08:30:38;;;;;;;105.88;55.45;;;;;;;;;;5042958;28;20047;-74
2021/12/25 08:33:04;;;;;;;93.80;48.25;;;;;;;;;;5058591;28;20465;-73
2021/12/25 08:35:31;;;;;;;85.18;43.25;;;;;;;;;;5077469;28;20025;-73
2021/12/25 08:37:57;;;;;;;74.38;40.50;;;;;;;;;;5059236;28;20043;-74
2021/12/25 08:40:24;;;;;;;67.75;36.38;;;;;;;;;;5060234;28;20512;-74
2021/12/25 08:42:56;;;;;;;79.60;41.38;;;;;;;;;;5059472;28;20021;-74
2021/12/25 08:48:09;;;;;;;75.82;41.67;;;;;;;;;;5059333;28;20460;-74
2021/12/25 08:50:35;;;;;;;89.55;47.80;;;;;;;;;;5076677;28;20381;-74
2021/12/25 08:53:02;;;;;;;78.55;45.03;;;;;;;;;;5077649;28;20406;-74
2021/12/25 08:55:28;;;;;;;89.25;42.60;;;;;;;;;;5058936;28;20017;-74
2021/12/25 08:57:54;;;;;;;84.82;41.90;;;;;;;;;;5043265;28;20024;-76
2021/12/25 09:00:20;;;;;;;104.95;45.00;;;;;;;;;;5058853;28;20040;-74
2021/12/25 09:02:47;;;;;;;83.07;44.95;;;;;;;;;;5042693;28;20016;-74
2021/12/25 09:05:13;;;;;;;85.72;43.05;;;;;;;;;;5042449;28;20434;-74
2021/12/25 09:07:40;;;;;;;86.28;38.63;;;;;;;;;;5059543;28;20031;-73
2021/12/25 09:10:06;;;;;;;77.53;38.70;;;;;;;;;;5076449;28;20028;-73
2021/12/25 09:12:39;;;;;;;68.88;36.25;;;;;;;;;;5042082;28;20058;-74
2021/12/25 09:15:06;;;;;;;78.35;38.10;;;;;;;;;;5043058;28;20058;-74
2021/12/25 09:17:32;;;;;;;84.50;39.92;;;;;;;;;;5042627;28;20027;-74
2021/12/25 09:19:58;;;;;;;103.05;43.67;;;;;;;;;;5059765;28;20036;-74
2021/12/25 09:22:24;;;;;;;78.03;40.63;;;;;;;;;;5055452;28;20097;-73
2021/12/25 09:24:50;;;;;;;79.68;40.67;;;;;;;;;;5076843;28;20035;-73
2021/12/25 09:27:16;;;;;;;88.90;40.97;;;;;;;;;;5057676;28;20520;-74
2021/12/25 09:29:42;;;;;;;84.60;43.97;;;;;;;;;;5058688;28;20027;-75
2021/12/25 09:32:10;;;;;;;98.43;43.08;;;;;;;;;;5057172;28;20021;-74
2021/12/25 09:34:36;;;;;;;98.35;47.38;;;;;;;;;;5041245;28;20023;-74
2021/12/25 09:37:02;;;;;;;132.18;51.47;;;;;;;;;;5057801;28;20078;-74
2021/12/25 09:39:29;;;;;;;124.57;54.53;;;;;;;;;;5041890;28;20025;-74
2021/12/25 09:41:55;;;;;;;104.13;55.70;;;;;;;;;;5042440;28;20365;-74
2021/12/25 09:44:21;;;;;;;115.88;57.00;;;;;;;;;;5045997;28;20016;-74
2021/12/25 09:46:47;;;;;;;126.82;63.75;;;;;;;;;;5046839;28;20119;-74
2021/12/25 09:49:14;;;;;;;123.32;61.95;;;;;;;;;;5062268;28;20402;-74
2021/12/25 09:51:40;;;;;;;117.38;59.30;;;;;;;;;;5045774;28;20051;-74
2021/12/25 09:54:08;;;;;;;121.13;60.13;;;;;;;;;;5046031;28;20087;-74
2021/12/25 09:56:35;;;;;;;150.88;67.85;;;;;;;;;;5045600;28;20017;-74
2021/12/25 09:59:03;;;;;;;129.25;64.78;;;;;;;;;;5080605;28;20024;-74
2021/12/25 10:01:38;;;;;;;133.18;64.55;;;;;;;;;;5080487;28;20024;-74
2021/12/25 10:04:06;;;;;;;130.88;65.18;;;;;;;;;;5046508;28;20384;-74
2021/12/25 10:06:36;;;;;;;127.90;65.60;;;;;;;;;;5045940;28;20021;-74
2021/12/25 10:09:12;;;;;;;124.65;67.10;;;;;;;;;;5062857;28;20025;-75
2021/12/25 10:11:56;;;;;;;133.10;67.13;;;;;;;;;;5063007;28;20414;-74
2021/12/25 10:14:22;;;;;;;132.27;64.78;;;;;;;;;;5080370;28;20415;-74
2021/12/25 10:16:48;;;;;;;143.13;66.70;;;;;;;;;;5080066;28;20377;-74
2021/12/25 10:19:19;;;;;;;143.68;63.88;;;;;;;;;;5080482;28;20027;-75
2021/12/25 10:21:45;;;;;;;137.15;65.88;;;;;;;;;;5062858;28;20036;-75
2021/12/25 10:24:15;;;;;;;138.00;66.45;;;;;;;;;;5046545;28;20055;-74
2021/12/25 10:26:41;;;;;;;;;;;;;;;;;;5047094;28;20024;-74
2021/12/25 10:29:18;;;;;;;139.00;60.25;;;;;;;;;;5062352;28;19991;-75
2021/12/25 10:31:44;;;;;;;116.45;57.70;;;;;;;;;;5062383;28;20021;-74
2021/12/25 10:34:16;;;;;;;97.63;52.90;;;;;;;;;;5046350;28;20066;-75
2021/12/25 10:36:43;;;;;;;103.53;52.20;;;;;;;;;;5045687;28;20326;-74
2021/12/25 10:39:12;;;;;;;75.85;42.28;;;;;;;;;;5080129;28;20047;-74
2021/12/25 10:41:50;;;;;;;86.45;40.78;;;;;;;;;;5046124;28;20036;-75
2021/12/25 10:44:19;;;;;;;72.47;36.00;;;;;;;;;;5045218;28;20021;-74
2021/12/25 10:46:51;;;;;;;71.32;36.90;;;;;;;;;;5062452;28;20017;-74
2021/12/25 10:49:17;;;;;;;63.67;36.08;;;;;;;;;;5062125;28;20107;-74
2021/12/25 10:51:43;;;;;;;72.70;35.28;;;;;;;;;;5061518;28;20027;-74
2021/12/25 10:54:12;;;;;;;68.78;37.08;;;;;;;;;;5046085;28;20017;-75
2021/12/25 10:56:39;;;;;;;82.93;38.45;;;;;;;;;;5046022;28;20122;-74
2021/12/25 10:59:11;;;;;;;78.10;39.80;;;;;;;;;;5060902;28;20414;-74
2021/12/25 11:01:39;;;;;;;77.38;37.97;;;;;;;;;;5045050;28;20147;-74
2021/12/25 11:04:08;;;;;;;97.95;42.65;;;;;;;;;;5079836;28;20076;-74
2021/12/25 11:06:41;;;;;;;73.45;38.55;;;;;;;;;;5061614;28;20170;-74
2021/12/25 11:09:08;;;;;;;72.85;37.22;;;;;;;;;;5044525;28;20028;-74
2021/12/25 11:11:34;;;;;;;71.45;39.63;;;;;;;;;;5061760;28;20440;-75
2021/12/25 11:14:02;;;;;;;71.07;37.97;;;;;;;;;;5079164;28;20105;-74
2021/12/25 11:16:34;;;;;;;73.68;38.28;;;;;;;;;;5045821;28;20031;-75
2021/12/25 11:19:10;;;;;;;76.20;43.38;;;;;;;;;;5079117;28;20326;-74
2021/12/25 11:21:37;;;;;;;74.57;43.30;;;;;;;;;;5078806;28;20032;-74
2021/12/25 11:24:05;;;;;;;83.35;42.22;;;;;;;;;;5061443;28;20013;-74
2021/12/25 11:26:32;;;;;;;85.55;42.33;;;;;;;;;;5061685;28;20070;-74
2021/12/25 11:28:58;;;;;;;80.53;43.53;;;;;;;;;;5061370;28;20020;-73
2021/12/25 11:31:24;;;;;;;92.45;46.97;;;;;;;;;;5061455;28;20024;-75
2021/12/25 11:33:51;;;;;;;93.75;48.45;;;;;;;;;;5062056;28;20024;-76
2021/12/25 11:36:17;;;;;;;98.93;51.35;;;;;;;;;;5044826;28;20021;-74
2021/12/25 11:38:44;;;;;;;97.75;48.65;;;;;;;;;;5061302;28;20028;-75
2021/12/25 11:41:12;;;;;;;102.85;52.13;;;;;;;;;;5060477;28;20036;-74
2021/12/25 11:43:40;;;;;;;109.00;52.97;;;;;;;;;;5078641;28;20016;-74
2021/12/25 11:46:08;;;;;;;90.35;46.85;;;;;;;;;;5044862;28;20024;-74
2021/12/25 11:48:34;;;;;;;86.93;44.42;;;;;;;;;;5061474;28;20023;-75
2021/12/25 11:51:01;;;;;;;92.85;41.40;;;;;;;;;;5062327;28;20027;-74
2021/12/25 11:53:45;;;;;;;89.57;45.47;;;;;;;;;;5045834;28;20048;-73
2021/12/25 11:56:25;;;;;;;92.35;46.88;;;;;;;;;;5044686;28;20020;-74
2021/12/25 11:58:53;;;;;;;106.20;50.17;;;;;;;;;;5078652;28;20028;-73
2021/12/25 12:01:33;;;;;;;111.68;50.83;;;;;;;;;;5061689;28;20113;-74
2021/12/25 12:04:01;;;;;;;107.47;52.07;;;;;;;;;;5061599;28;20027;-74
2021/12/25 12:06:46;;;;;;;115.80;52.95;;;;;;;;;;5043029;28;20675;-74
2021/12/25 12:09:27;;;;;;;110.15;53.15;;;;;;;;;;5045412;28;20020;-74
2021/12/25 12:12:03;;;;;;;113.43;57.25;;;;;;;;;;5078353;28;20066;-73
2021/12/25 12:14:29;;;;;;;147.25;66.47;;;;;;;;;;5060682;28;20017;-73
2021/12/25 12:16:57;;;;;;;128.93;63.42;;;;;;;;;;5044174;28;20023;-74
2021/12/25 12:19:33;;;;;;;129.15;61.58;;;;;;;;;;5044462;28;20028;-74
2021/12/25 12:22:00;;;;;;;115.95;56.50;;;;;;;;;;5061010;28;20307;-74
2021/12/25 12:27:03;;;;;;;85.75;45.38;;;;;;;;;;5060767;28;20115;-74
2021/12/25 12:29:38;;;;;;;93.38;42.72;;;;;;;;;;5078414;28;20027;-74
2021/12/25 12:32:26;;;;;;;79.57;40.10;;;;;;;;;;5060483;28;20018;-74
2021/12/25 12:34:53;;;;;;;77.88;40.13;;;;;;;;;;5060731;28;20081;-74
2021/12/25 12:37:19;;;;;;;76.78;39.35;;;;;;;;;;5060574;28;20020;-75
2021/12/25 12:40:04;;;;;;;73.20;39.80;;;;;;;;;;5060164;28;20074;-74
2021/12/25 12:42:58;;;;;;;73.75;36.03;;;;;;;;;;5078104;28;20043;-74
2021/12/25 12:45:34;;;;;;;73.53;38.83;;;;;;;;;;5057196;28;20029;-74
2021/12/25 12:48:09;;;;;;;67.35;35.33;;;;;;;;;;5061094;28;20101;-73
2021/12/25 12:50:36;;;;;;;67.13;34.20;;;;;;;;;;5078659;28;20024;-74
2021/12/25 12:53:07;;;;;;;85.95;39.10;;;;;;;;;;5060333;28;20044;-74
2021/12/25 12:55:34;;;;;;;79.22;37.60;;;;;;;;;;5060705;28;20031;-74
2021/12/25 12:58:20;;;;;;;81.72;42.90;;;;;;;;;;5060209;28;20107;-74
2021/12/25 13:00:48;;;;;;;80.43;43.55;;;;;;;;;;5043231;28;20076;-73
2021/12/25 13:03:15;;;;;;;81.70;39.15;;;;;;;;;;5078230;28;20027;-73
2021/12/25 13:05:43;;;;;;;80.07;36.13;;;;;;;;;;5059399;28;20031;-74
2021/12/25 13:08:17;;;;;;;77.47;41.33;;;;;;;;;;5043869;28;20020;-73
2021/12/25 13:10:51;;;;;;;84.45;42.40;;;;;;;;;;5078254;28;20021;-71
2021/12/25 13:13:34;;;;;;;79.10;38.95;;;;;;;;;;5059564;28;20023;-71
2021/12/25 13:16:05;;;;;;;89.70;44.47;;;;;;;;;;5077445;28;20390;-71
2021/12/25 13:18:32;;;;;;;82.40;44.75;;;;;;;;;;5059070;28;20048;-72
2021/12/25 13:21:01;;;;;;;89.65;47.78;;;;;;;;;;5059742;28;20029;-72
2021/12/25 13:23:32;;;;;;;93.35;47.65;;;;;;;;;;5059759;28;20105;-72
2021/12/25 13:25:58;;;;;;;;;;;;;;;;;;5059949;28;20028;-73
2021/12/25 13:28:25;;;;;;;96.22;50.95;;;;;;;;;;5043112;28;19916;-72
2021/12/25 13:30:53;;;;;;;91.32;46.90;;;;;;;;;;5042992;28;20055;-71
2021/12/25 13:33:22;;;;;;;102.43;52.20;;;;;;;;;;5059098;28;20016;-71
2021/12/25 13:35:57;;;;;;;107.22;52.75;;;;;;;;;;5043521;28;20052;-72
2021/12/25 13:38:23;;;;;;;102.93;52.75;;;;;;;;;;5043244;28;20024;-72
2021/12/25 13:40:51;;;;;;;100.00;50.15;;;;;;;;;;5078499;28;20037;-73
2021/12/25 13:43:17;;;;;;;99.15;49.88;;;;;;;;;;5060119;28;20373;-74
2021/12/25 13:45:44;;;;;;;102.47;52.60;;;;;;;;;;5043660;28;20028;-74
2021/12/25 13:48:10;;;;;;;89.45;47.25;;;;;;;;;;5043144;28;20016;-73
2021/12/25 13:50:37;;;;;;;87.90;47.10;;;;;;;;;;5042829;28;20030;-73
2021/12/25 13:53:18;;;;;;;95.07;46.03;;;;;;;;;;5059974;28;20331;-74
2021/12/25 13:55:47;;;;;;;101.75;49.17;;;;;;;;;;5059610;28;20054;-74
2021/12/25 13:58:15;;;;;;;90.85;42.42;;;;;;;;;;5043703;28;20419;-73
2021/12/25 14:00:46;;;;;;;103.53;48.63;;;;;;;;;;5059273;28;20435;-73
2021/12/25 14:03:11;;;;;;;;;;;;;;;;;;5042819;28;20021;-74
2021/12/25 14:05:39;;;;;;;110.75;48.13;;;;;;;;;;5042376;28;19954;-73
2021/12/25 14:08:07;;;;;;;91.93;46.95;;;;;;;;;;5059891;28;20048;-73
2021/12/25 14:10:35;;;;;;;104.43;47.80;;;;;;;;;;5042876;28;20021;-73
2021/12/25 14:13:02;;;;;;;98.88;47.67;;;;;;;;;;5077269;28;20040;-73
2021/12/25 14:15:30;;;;;;;100.72;47.10;;;;;;;;;;5059270;28;20020;-73
2021/12/25 14:17:56;;;;;;;88.82;46.13;;;;;;;;;;5077572;28;20025;-73
2021/12/25 14:20:24;;;;;;;99.50;48.58;;;;;;;;;;5077062;28;20029;-73
2021/12/25 14:23:02;;;;;;;95.47;47.20;;;;;;;;;;5059339;28;20020;-73
2021/12/25 14:25:31;;;;;;;92.55;45.42;;;;;;;;;;5059080;28;20449;-73
2021/12/25 14:28:01;;;;;;;98.50;45.13;;;;;;;;;;5060579;28;20051;-73
2021/12/25 14:30:28;;;;;;;79.15;42.30;;;;;;;;;;5063260;28;20016;-73
2021/12/25 14:32:54;;;;;;;93.30;43.80;;;;;;;;;;5063346;28;20020;-73
2021/12/25 14:35:21;;;;;;;88.93;43.25;;;;;;;;;;5080618;28;20025;-73
2021/12/25 14:37:53;;;;;;;87.78;44.25;;;;;;;;;;5062888;28;20021;-73
2021/12/25 14:40:20;;;;;;;89.28;43.17;;;;;;;;;;5045322;28;20437;-73
2021/12/25 14:42:47;;;;;;;91.53;45.75;;;;;;;;;;5062306;28;20036;-73
2021/12/25 14:45:16;;;;;;;97.55;49.78;;;;;;;;;;5046059;28;20426;-73
2021/12/25 14:47:46;;;;;;;79.13;44.70;;;;;;;;;;5062076;28;20065;-73
2021/12/25 14:50:14;;;;;;;78.97;42.75;;;;;;;;;;5046663;28;20021;-73
2021/12/25 14:52:40;;;;;;;93.32;47.53;;;;;;;;;;5062449;28;20078;-73
2021/12/25 14:55:16;;;;;;;94.47;47.40;;;;;;;;;;5062824;28;20021;-73
2021/12/25 14:57:43;;;;;;;102.03;48.40;;;;;;;;;;5061748;28;20542;-73
2021/12/25 15:00:10;;;;;;;99.22;49.90;;;;;;;;;;5062691;28;20438;-73
2021/12/25 15:02:36;;;;;;;96.28;47.45;;;;;;;;;;5046833;28;20021;-73
2021/12/25 15:05:03;;;;;;;92.32;47.35;;;;;;;;;;5061941;28;20035;-73
2021/12/25 15:07:31;;;;;;;102.88;52.03;;;;;;;;;;5080598;28;20018;-73
2021/12/25 15:09:57;;;;;;;94.97;49.63;;;;;;;;;;5062928;28;20024;-73
2021/12/25 15:12:31;;;;;;;104.68;52.40;;;;;;;;;;5062798;28;20021;-73
2021/12/25 15:15:01;;;;;;;114.85;51.75;;;;;;;;;;5045924;28;20488;-73
2021/12/25 15:17:28;;;;;;;121.20;54.85;;;;;;;;;;5062110;28;20362;-73
2021/12/25 15:20:01;;;;;;;118.80;57.25;;;;;;;;;;5061689;28;20058;-73
2021/12/25 15:22:27;;;;;;;121.07;64.50;;;;;;;;;;5044694;28;20021;-73
2021/12/25 15:24:53;;;;;;;123.00;56.55;;;;;;;;;;5062461;28;20048;-73
2021/12/25 15:27:28;;;;;;;156.65;83.43;;;;;;;;;;5061229;28;20012;-73
2021/12/25 15:29:55;;;;;;;186.95;96.68;;;;;;;;;;5061720;28;20020;-71
2021/12/25 15:32:22;;;;;;;202.93;111.70;;;;;;;;;;5079753;28;20062;-73
2021/12/25 15:34:50;;;;;;;200.52;102.05;;;;;;;;;;5044769;28;20112;-73
2021/12/25 15:37:21;;;;;;;211.60;108.72;;;;;;;;;;5061202;28;20016;-73
2021/12/25 15:39:47;;;;;;;218.88;120.53;;;;;;;;;;5060047;28;20112;-73
2021/12/25 15:42:13;;;;;;;233.32;133.90;;;;;;;;;;5078293;28;20346;-75
2021/12/25 15:44:39;;;;;;;257.02;142.50;;;;;;;;;;5078781;28;20021;-75
2021/12/25 15:47:05;;;;;;;218.88;117.70;;;;;;;;;;5043997;28;20017;-74
2021/12/25 15:49:31;;;;;;;220.35;116.25;;;;;;;;;;5060275;28;20046;-75